CPX655 Details

Departure: Key West International Airport (KEYW)
Arrival: Miami International Airport (KMIA)
Route: CARNU DVALL DVALL3


Current Weather Information
KEYW 181520Z 06007KT 10SM SCT017 26/21 A3006 RMK AO2 T02610211
KMIA 181453Z 36005KT 10SM FEW010 SCT130 BKN240 23/19 A3006 RMK AO2 SLP178 T02330194 53013